Portada
METAR-TAF:

METAR-TAF

Aeroports :

Gilmer Municipal Airport (Fox Stephens Field)

Gilmer, Texas, Estats Units d'Amèrica

latitud: 32-41-56N, longitud: 094-56-55W, altitud: 127 m

Observació

L'informe es va fer fa 30 minuts, a les 23:55 UTC
Vent 7 kt del Nord-Oest amb ràfegues de 14 kt, variant entre Oest i Nord/Nord-Oest
Temperatura 12°C
Humitat 100%
Pressió 1015 hPa
Visibilitat: 8.0 km
boirina

METAR: KJXI 032355Z AUTO 31007G14KT 280V340 5SM BR 12/12 A2997 RMK AO2 P0002 60008 T01230120 10207 20123

Hora: 19:25 (00:25 UTC)


TAF: manca

Observacions i pronòstics meteorològics de més de 4000 aeroports (METAR i TAF).

Les estacions disponibles són els punts grocs i vermells al mapa.

Posi el ratolí al punt desitjat per veure el nom de l'estació.

Feu clic per veure les observacions i els pronòstics meteorològics.

Per canviar el mapa: feu clic els botons verds amb una creu de color negre per apropar; al botó verd amb un guió per allunyar la imatge; o en les fletxes verdes per a mapes adjacents.


METAR-TAF: